Time;durP1;ratioP1;P1;durP2;ratioP2;P2;SDS_P1;SDS_P2;PMS_P1;PMS_P2;Temp;Humidity;BMP_temperature;BMP_pressure;BME280_temperature;BME280_humidity;BME280_pressure;Samples;Min_cycle;Max_cycle;Signal;HPM_P1;HPM_P2
2021/05/31 00:02:15;;;;;;;21.57;17.13;;;12.30;99.90;;;;;;6299141;22;20168;-84
2021/05/31 00:04:42;;;;;;;23.43;17.97;;;12.30;99.90;;;;;;6296017;22;20801;-85
2021/05/31 00:07:11;;;;;;;21.70;17.60;;;12.30;99.90;;;;;;6295568;22;20221;-86
2021/05/31 00:09:39;;;;;;;22.97;18.30;;;12.20;99.90;;;;;;6296419;22;20168;-86
2021/05/31 00:12:07;;;;;;;19.10;16.33;;;12.20;99.90;;;;;;6296384;22;20194;-83
2021/05/31 00:14:34;;;;;;;25.97;17.20;;;12.20;99.90;;;;;;6296197;22;20168;-82
2021/05/31 00:17:00;;;;;;;20.43;15.93;;;12.20;99.90;;;;;;6295934;22;20172;-83
2021/05/31 00:19:27;;;;;;;19.83;16.90;;;12.10;99.90;;;;;;6296553;22;20171;-82
2021/05/31 00:21:54;;;;;;;22.43;18.30;;;12.10;99.90;;;;;;6297806;22;20171;-82
2021/05/31 00:24:21;;;;;;;19.40;16.10;;;12.10;99.90;;;;;;6297961;22;20483;-81
2021/05/31 00:26:48;;;;;;;20.60;18.23;;;12.00;99.90;;;;;;6298302;22;20164;-86
2021/05/31 00:29:15;;;;;;;21.03;16.57;;;12.00;99.90;;;;;;6300196;22;20171;-84
2021/05/31 00:31:42;;;;;;;19.37;16.43;;;12.00;99.90;;;;;;6300162;22;20537;-85
2021/05/31 00:34:09;;;;;;;24.43;18.53;;;12.00;99.90;;;;;;6300310;22;20179;-84
2021/05/31 00:36:35;;;;;;;21.83;17.43;;;12.00;99.90;;;;;;6299819;22;20175;-80
2021/05/31 00:39:03;;;;;;;23.13;17.43;;;11.90;99.90;;;;;;6300243;22;20184;-86
2021/05/31 00:41:29;;;;;;;26.27;18.20;;;11.90;99.90;;;;;;6298906;22;20179;-80
2021/05/31 00:43:56;;;;;;;18.67;16.60;;;11.90;99.90;;;;;;6300220;22;20210;-82
2021/05/31 00:46:25;;;;;;;20.33;16.73;;;11.90;99.90;;;;;;6299717;22;20214;-80
2021/05/31 00:48:52;;;;;;;23.77;17.73;;;11.90;99.90;;;;;;6301429;22;20495;-80
2021/05/31 00:51:19;;;;;;;23.67;16.67;;;11.90;99.90;;;;;;6305349;22;20172;-83
2021/05/31 00:53:45;;;;;;;24.53;17.37;;;11.80;99.90;;;;;;6305401;22;20248;-82
2021/05/31 00:56:14;;;;;;;24.13;17.43;;;11.80;99.90;;;;;;6302812;22;20190;-81
2021/05/31 00:58:40;;;;;;;22.90;18.33;;;11.70;99.90;;;;;;6300130;22;20172;-82
2021/05/31 01:01:07;;;;;;;18.83;16.03;;;11.70;99.90;;;;;;6299475;22;20485;-83
2021/05/31 01:03:34;;;;;;;23.07;16.87;;;11.70;99.90;;;;;;6297291;22;20168;-84
2021/05/31 01:06:03;;;;;;;21.17;17.90;;;11.70;99.90;;;;;;6297376;22;20218;-82
2021/05/31 01:08:35;;;;;;;26.63;19.17;;;11.70;99.90;;;;;;6298337;22;20582;-80
2021/05/31 01:11:07;;;;;;;29.00;19.57;;;11.70;99.90;;;;;;6297992;22;20172;-82
2021/05/31 01:13:43;;;;;;;25.30;17.67;;;11.70;99.90;;;;;;6297781;22;20231;-83
2021/05/31 01:16:14;;;;;;;19.83;16.77;;;11.60;99.90;;;;;;6297297;22;20175;-82
2021/05/31 01:18:43;;;;;;;23.10;18.03;;;11.60;99.90;;;;;;6297868;22;20400;-88
2021/05/31 01:21:32;;;;;;;21.87;17.77;;;11.50;99.90;;;;;;6298142;22;20172;-86
2021/05/31 01:24:05;;;;;;;22.50;17.07;;;11.50;99.90;;;;;;6297798;22;20183;-85
2021/05/31 01:26:43;;;;;;;19.40;17.17;;;11.50;99.90;;;;;;6298688;22;20864;-83
2021/05/31 01:29:13;;;;;;;27.37;19.00;;;11.50;99.90;;;;;;6297779;22;20164;-82
2021/05/31 01:31:45;;;;;;;20.10;17.83;;;11.50;99.90;;;;;;6297896;22;20172;-85
2021/05/31 01:34:15;;;;;;;24.27;18.57;;;11.50;99.90;;;;;;6297172;22;20183;-82
2021/05/31 01:36:45;;;;;;;27.53;19.83;;;11.40;99.90;;;;;;6296163;22;20198;-87
2021/05/31 01:39:13;;;;;;;21.37;17.70;;;11.40;99.90;;;;;;6297012;22;20168;-81
2021/05/31 01:41:40;;;;;;;24.83;18.73;;;11.50;99.90;;;;;;6297169;22;20247;-80
2021/05/31 01:44:07;;;;;;;25.47;19.10;;;11.40;99.90;;;;;;6297134;22;20169;-80
2021/05/31 01:46:36;;;;;;;26.00;19.00;;;11.40;99.90;;;;;;6297222;22;20179;-78
2021/05/31 01:49:03;;;;;;;22.80;19.10;;;11.40;99.90;;;;;;6297606;22;20570;-83
2021/05/31 01:51:30;;;;;;;23.43;19.57;;;11.40;99.90;;;;;;6298725;22;20610;-84
2021/05/31 01:53:57;;;;;;;24.33;19.10;;;11.40;99.90;;;;;;6298321;22;20199;-86
2021/05/31 01:56:24;;;;;;;27.30;19.40;;;11.40;99.90;;;;;;6297257;22;20168;-87
2021/05/31 01:58:52;;;;;;;19.57;17.47;;;11.40;99.90;;;;;;6296685;22;20165;-81
2021/05/31 02:01:19;;;;;;;29.27;20.17;;;11.30;99.90;;;;;;6299700;22;20207;-83
2021/05/31 02:03:46;;;;;;;25.87;20.53;;;11.30;99.90;;;;;;6299812;22;20835;-80
2021/05/31 02:06:13;;;;;;;30.43;19.70;;;11.30;99.90;;;;;;6298524;22;20172;-86
2021/05/31 02:08:39;;;;;;;26.63;19.90;;;11.20;99.90;;;;;;6299030;22;20164;-83
2021/05/31 02:11:13;;;;;;;26.33;20.63;;;11.20;99.90;;;;;;6298520;22;20175;-87
2021/05/31 02:13:41;;;;;;;23.90;19.50;;;11.20;99.90;;;;;;6299076;22;20203;-85
2021/05/31 02:16:16;;;;;;;26.03;19.67;;;11.20;99.90;;;;;;6299831;22;20226;-80
2021/05/31 02:18:48;;;;;;;30.83;22.00;;;11.10;99.90;;;;;;6301120;22;20155;-83
2021/05/31 02:21:16;;;;;;;28.60;21.20;;;11.10;99.90;;;;;;6302170;22;20677;-80
2021/05/31 02:23:43;;;;;;;23.23;19.50;;;11.10;99.90;;;;;;6302289;22;20198;-89
2021/05/31 02:26:13;;;;;;;26.13;20.37;;;11.10;99.90;;;;;;6300987;22;20167;-86
2021/05/31 02:28:39;;;;;;;27.23;20.77;;;11.10;99.90;;;;;;6302510;22;20179;-88
2021/05/31 02:31:07;;;;;;;32.20;21.13;;;11.10;99.90;;;;;;6300345;22;20183;-82
2021/05/31 02:33:34;;;;;;;26.67;21.13;;;11.00;99.90;;;;;;6302180;22;20196;-88
2021/05/31 02:36:02;;;;;;;29.67;20.43;;;11.00;99.90;;;;;;6302387;22;20449;-88
2021/05/31 02:38:28;;;;;;;26.97;20.23;;;11.10;99.90;;;;;;6301921;22;20198;-88
2021/05/31 02:40:55;;;;;;;27.13;20.90;;;11.00;99.90;;;;;;6300641;22;20176;-85
2021/05/31 02:43:21;;;;;;;27.83;21.60;;;11.10;99.90;;;;;;6300729;22;20230;-82
2021/05/31 02:45:48;;;;;;;29.43;21.83;;;11.10;99.90;;;;;;6302424;22;20599;-82
2021/05/31 02:48:14;;;;;;;26.10;20.47;;;11.00;99.90;;;;;;6301230;22;20195;-91
2021/05/31 02:50:41;;;;;;;27.40;21.90;;;10.90;99.90;;;;;;6300992;22;20172;-88
2021/05/31 02:53:08;;;;;;;29.60;21.13;;;10.90;99.90;;;;;;6303421;22;20266;-84
2021/05/31 02:55:36;;;;;;;28.97;21.67;;;10.90;99.90;;;;;;6301793;22;20169;-89
2021/05/31 02:58:03;;;;;;;32.07;22.90;;;10.90;99.90;;;;;;6301503;22;20183;-83
2021/05/31 03:00:30;;;;;;;27.97;21.50;;;10.90;99.90;;;;;;6301198;22;20560;-84
2021/05/31 03:02:57;;;;;;;30.53;22.23;;;10.90;99.90;;;;;;6300850;22;20176;-86
2021/05/31 03:05:27;;;;;;;31.57;22.73;;;10.90;99.90;;;;;;6301305;22;20479;-87
2021/05/31 03:07:54;;;;;;;30.20;21.77;;;10.80;99.90;;;;;;6301671;22;20239;-83
2021/05/31 03:10:22;;;;;;;25.73;21.23;;;10.90;99.90;;;;;;6302181;22;20176;-86
2021/05/31 03:12:49;;;;;;;29.60;22.43;;;10.80;99.90;;;;;;6301462;22;20249;-85
2021/05/31 03:15:17;;;;;;;29.10;22.40;;;10.80;99.90;;;;;;6299512;22;20168;-88
2021/05/31 03:17:44;;;;;;;28.37;22.20;;;10.70;99.90;;;;;;6301088;22;20201;-88
2021/05/31 03:20:12;;;;;;;28.13;21.53;;;10.70;99.90;;;;;;6300540;22;20529;-88
2021/05/31 03:22:38;;;;;;;31.13;23.57;;;10.70;99.90;;;;;;6303589;22;20175;-85
2021/05/31 03:25:06;;;;;;;27.57;22.17;;;10.70;99.90;;;;;;6300359;22;20243;-84
2021/05/31 03:27:34;;;;;;;30.60;23.27;;;10.70;99.90;;;;;;6301013;22;20865;-84
2021/05/31 03:30:00;;;;;;;25.53;21.77;;;10.70;99.90;;;;;;6300859;22;20172;-83
2021/05/31 03:32:26;;;;;;;29.97;22.50;;;10.70;99.90;;;;;;6299935;22;20241;-83
2021/05/31 03:34:53;;;;;;;29.87;22.00;;;10.70;99.90;;;;;;6299488;22;20164;-80
2021/05/31 03:37:19;;;;;;;32.77;23.63;;;10.60;99.90;;;;;;6301510;22;20192;-88
2021/05/31 03:39:45;;;;;;;35.37;24.20;;;10.70;99.90;;;;;;6302813;22;20229;-84
2021/05/31 03:42:12;;;;;;;30.90;23.13;;;10.70;99.90;;;;;;6304055;22;20233;-90
2021/05/31 03:44:40;;;;;;;29.70;24.47;;;10.70;99.90;;;;;;6301646;22;20616;-87
2021/05/31 03:47:06;;;;;;;31.93;24.00;;;10.60;99.90;;;;;;6300934;22;20556;-88
2021/05/31 03:49:32;;;;;;;32.07;23.30;;;10.70;99.90;;;;;;6300408;22;20172;-82
2021/05/31 03:51:59;;;;;;;32.77;23.80;;;10.70;99.90;;;;;;6299835;22;20175;-80
2021/05/31 03:54:25;;;;;;;28.20;22.73;;;10.70;99.90;;;;;;6300458;22;20202;-79
2021/05/31 03:56:51;;;;;;;25.03;21.87;;;10.60;99.90;;;;;;6302397;22;20168;-81
2021/05/31 03:59:18;;;;;;;30.73;24.37;;;10.70;99.90;;;;;;6301999;22;20168;-84
2021/05/31 04:01:47;;;;;;;30.10;22.57;;;10.70;99.90;;;;;;6300851;22;20217;-88
2021/05/31 04:04:13;;;;;;;34.20;24.60;;;10.70;99.90;;;;;;6299981;22;20226;-84
2021/05/31 04:06:55;;;;;;;28.93;22.43;;;10.70;99.90;;;;;;6300588;22;20168;-86
2021/05/31 04:12:07;;;;;;;25.67;22.63;;;10.80;99.90;;;;;;6301428;22;20309;-87
2021/05/31 04:14:33;;;;;;;32.33;22.43;;;10.80;99.90;;;;;;6300767;22;20171;-88
2021/05/31 04:17:01;;;;;;;28.60;22.57;;;10.80;99.90;;;;;;6302145;22;20168;-90
2021/05/31 04:19:27;;;;;;;30.93;23.53;;;10.80;99.90;;;;;;6300021;22;20472;-86
2021/05/31 04:21:54;;;;;;;30.43;24.97;;;10.80;99.90;;;;;;6301440;22;20740;-84
2021/05/31 04:24:22;;;;;;;34.40;25.17;;;10.80;99.90;;;;;;6300893;22;20168;-85
2021/05/31 04:26:49;;;;;;;32.20;25.47;;;10.90;99.90;;;;;;6301082;22;20301;-85
2021/05/31 04:29:17;;;;;;;33.30;26.17;;;10.80;99.90;;;;;;6300533;22;20172;-83
2021/05/31 04:31:44;;;;;;;32.80;24.97;;;10.90;99.90;;;;;;6299585;22;20176;-88
2021/05/31 04:34:12;;;;;;;34.10;25.03;;;10.90;99.90;;;;;;6298909;22;20192;-84
2021/05/31 04:36:40;;;;;;;33.27;24.23;;;11.00;99.90;;;;;;6301215;22;20183;-89
2021/05/31 04:39:07;;;;;;;35.10;25.77;;;11.10;99.90;;;;;;6300886;22;20182;-87
2021/05/31 04:41:34;;;;;;;39.83;26.13;;;11.20;99.90;;;;;;6301374;22;20176;-86
2021/05/31 04:44:00;;;;;;;31.13;25.03;;;11.20;99.90;;;;;;6301426;22;20171;-88
2021/05/31 04:46:27;;;;;;;35.67;26.67;;;11.30;99.90;;;;;;6300876;22;20172;-80
2021/05/31 04:48:54;;;;;;;36.13;26.37;;;11.40;99.90;;;;;;6297957;22;20179;-80
2021/05/31 04:51:22;;;;;;;32.67;25.20;;;11.40;99.90;;;;;;6300282;22;20168;-84
2021/05/31 04:53:48;;;;;;;32.80;24.57;;;11.50;99.90;;;;;;6301130;22;20187;-89
2021/05/31 04:56:15;;;;;;;34.30;25.40;;;11.60;99.90;;;;;;6302051;22;20172;-88
2021/05/31 04:58:41;;;;;;;34.97;25.83;;;11.70;99.90;;;;;;6300985;22;20636;-90
2021/05/31 05:01:08;;;;;;;34.70;24.93;;;11.70;99.90;;;;;;6301445;22;20829;-86
2021/05/31 05:03:35;;;;;;;31.67;24.70;;;11.80;99.90;;;;;;6301080;22;20171;-86
2021/05/31 05:06:01;;;;;;;33.10;23.97;;;11.90;99.90;;;;;;6300889;22;20194;-87
2021/05/31 05:08:29;;;;;;;31.27;25.67;;;12.10;99.90;;;;;;6299801;22;20175;-90
2021/05/31 05:10:55;;;;;;;35.63;24.93;;;12.30;99.90;;;;;;6301955;22;20172;-90
2021/05/31 05:13:22;;;;;;;26.57;22.53;;;12.40;99.90;;;;;;6302570;22;20208;-89
2021/05/31 05:15:49;;;;;;;33.57;24.07;;;12.50;99.90;;;;;;6301458;22;20171;-89
2021/05/31 05:18:15;;;;;;;31.23;22.93;;;12.60;99.90;;;;;;6302821;22;20172;-92
2021/05/31 05:20:42;;;;;;;31.07;23.00;;;12.80;99.90;;;;;;6301302;22;20178;-92
2021/05/31 05:23:08;;;;;;;33.20;21.40;;;13.10;99.90;;;;;;6301546;22;20198;-90
2021/05/31 05:25:36;;;;;;;22.87;19.83;;;13.30;99.90;;;;;;6301686;22;20825;-82
2021/05/31 05:28:02;;;;;;;29.40;21.03;;;13.60;99.90;;;;;;6300371;22;20171;-81
2021/05/31 05:30:29;;;;;;;22.77;18.53;;;13.80;99.90;;;;;;6299482;22;20171;-83
2021/05/31 05:32:59;;;;;;;20.97;18.57;;;14.00;99.90;;;;;;6300688;22;20192;-86
2021/05/31 05:35:30;;;;;;;22.00;17.47;;;14.20;99.90;;;;;;6301952;22;20754;-92
2021/05/31 05:38:07;;;;;;;23.67;17.73;;;14.40;99.90;;;;;;6299280;22;20198;-86
2021/05/31 05:43:32;;;;;;;25.17;18.10;;;14.30;99.90;;;;;;6296362;22;20776;-82
2021/05/31 05:46:03;;;;;;;23.50;17.97;;;14.00;99.90;;;;;;6297056;22;20171;-81
2021/05/31 05:48:30;;;;;;;22.53;18.50;;;13.90;99.90;;;;;;6298295;22;20164;-83
2021/05/31 05:51:05;;;;;;;25.07;18.47;;;13.80;99.90;;;;;;6297088;22;20172;-80
2021/05/31 05:53:32;;;;;;;23.87;19.53;;;13.80;99.90;;;;;;6302994;22;20187;-84
2021/05/31 05:56:01;;;;;;;27.73;19.07;;;13.60;99.90;;;;;;6305611;22;20172;-85
2021/05/31 05:58:29;;;;;;;25.27;19.13;;;13.70;99.90;;;;;;6304830;22;20195;-80
2021/05/31 06:00:56;;;;;;;25.37;19.60;;;13.80;99.90;;;;;;6304536;22;20172;-82
2021/05/31 06:03:23;;;;;;;28.23;20.40;;;13.90;99.90;;;;;;6302918;22;20191;-84
2021/05/31 06:05:49;;;;;;;30.00;22.43;;;13.90;99.90;;;;;;6302493;22;20831;-89
2021/05/31 06:08:16;;;;;;;25.43;20.67;;;14.00;99.90;;;;;;6302746;22;20164;-82
2021/05/31 06:10:42;;;;;;;28.77;23.13;;;13.90;99.90;;;;;;6301506;22;20490;-81
2021/05/31 06:13:10;;;;;;;28.50;20.30;;;14.00;99.90;;;;;;6301301;22;20203;-89
2021/05/31 06:15:36;;;;;;;30.00;20.47;;;14.10;99.90;;;;;;6302927;22;20173;-87
2021/05/31 06:18:03;;;;;;;27.73;20.90;;;14.20;99.90;;;;;;6298716;22;20210;-85
2021/05/31 06:20:29;;;;;;;24.63;20.20;;;14.30;99.90;;;;;;6297616;22;20403;-83
2021/05/31 06:22:56;;;;;;;27.23;20.40;;;14.40;99.90;;;;;;6298277;22;20175;-83
2021/05/31 06:25:23;;;;;;;29.53;21.23;;;14.70;99.90;;;;;;6300460;22;20180;-82
2021/05/31 06:27:50;;;;;;;27.63;21.03;;;15.10;99.90;;;;;;6299428;22;20191;-86
2021/05/31 06:30:19;;;;;;;28.43;21.80;;;15.30;99.90;;;;;;6299995;22;20172;-84
2021/05/31 06:32:45;;;;;;;29.30;21.60;;;15.50;99.90;;;;;;6298576;22;20192;-85
2021/05/31 06:35:12;;;;;;;24.10;19.37;;;15.90;99.90;;;;;;6297104;22;20398;-86
2021/05/31 06:37:38;;;;;;;22.83;18.60;;;16.00;99.90;;;;;;6296353;22;20198;-83
2021/05/31 06:40:07;;;;;;;24.25;19.02;;;16.50;99.90;;;;;;6300089;22;20760;-86
2021/05/31 06:42:36;;;;;;;21.52;17.77;;;17.00;99.90;;;;;;6301999;22;20164;-86
2021/05/31 06:45:04;;;;;;;17.88;16.00;;;17.40;99.90;;;;;;6299969;22;20233;-82
2021/05/31 06:47:32;;;;;;;22.23;17.20;;;17.80;99.90;;;;;;6298572;22;20176;-83
2021/05/31 06:49:58;;;;;;;21.95;17.23;;;18.10;99.90;;;;;;6298892;22;20168;-82
2021/05/31 06:52:24;;;;;;;23.17;16.75;;;18.20;99.90;;;;;;6298160;22;20172;-86
2021/05/31 06:54:51;;;;;;;22.23;16.73;;;18.30;99.90;;;;;;6296933;22;20195;-82
2021/05/31 06:57:17;;;;;;;19.00;15.02;;;18.50;99.90;;;;;;6295134;22;20180;-79
2021/05/31 06:59:43;;;;;;;22.02;16.73;;;18.70;99.90;;;;;;6294038;22;20172;-82
2021/05/31 07:02:09;;;;;;;20.50;16.65;;;18.90;99.90;;;;;;6294831;22;20176;-81
2021/05/31 07:04:37;;;;;;;20.02;15.13;;;19.00;99.90;;;;;;6296810;22;20620;-80
2021/05/31 07:07:04;;;;;;;20.10;15.80;;;19.40;99.90;;;;;;6297408;22;20183;-80
2021/05/31 07:09:30;;;;;;;17.45;14.35;;;19.70;99.90;;;;;;6296910;22;20693;-78
2021/05/31 07:11:56;;;;;;;19.33;14.10;;;19.90;99.90;;;;;;6297941;22;20241;-80
2021/05/31 07:14:32;;;;;;;18.35;14.10;;;20.00;99.90;;;;;;6296504;22;20204;-83
2021/05/31 07:16:58;;;;;;;16.50;13.32;;;20.00;99.90;;;;;;6297266;22;20190;-80
2021/05/31 07:19:25;;;;;;;17.38;14.27;;;20.40;99.90;;;;;;6297445;22;20186;-83
2021/05/31 07:21:53;;;;;;;21.50;15.32;;;20.40;99.90;;;;;;6296465;22;20167;-84
2021/05/31 07:24:20;;;;;;;15.88;13.68;;;20.60;99.90;;;;;;6296387;22;20169;-79
2021/05/31 07:26:47;;;;;;;18.20;13.40;;;20.20;99.90;;;;;;6297786;22;20172;-81
2021/05/31 07:29:13;;;;;;;20.40;15.80;;;20.20;99.90;;;;;;6298318;22;20176;-77
2021/05/31 07:31:40;;;;;;;16.60;14.63;;;20.10;99.90;;;;;;6296272;22;20172;-82
2021/05/31 07:34:06;;;;;;;16.00;13.73;;;19.80;99.90;;;;;;6297608;22;20242;-85
2021/05/31 07:36:32;;;;;;;16.85;15.07;;;20.00;99.90;;;;;;6297638;22;20180;-84
2021/05/31 07:39:00;;;;;;;17.27;15.13;;;19.80;99.90;;;;;;6297969;22;20730;-82
2021/05/31 07:41:26;;;;;;;18.70;15.20;;;20.10;99.90;;;;;;6296700;22;20214;-82
2021/05/31 07:43:53;;;;;;;17.30;15.20;;;19.90;99.90;;;;;;6298702;22;20176;-78
2021/05/31 07:46:19;;;;;;;17.33;14.27;;;20.20;99.90;;;;;;6298119;22;20168;-77
2021/05/31 07:48:46;;;;;;;14.48;12.77;;;20.10;99.90;;;;;;6298239;22;20275;-81
2021/05/31 07:51:17;;;;;;;16.67;13.98;;;20.10;99.90;;;;;;6298004;22;20275;-79
2021/05/31 07:53:44;;;;;;;14.90;13.30;;;20.50;99.90;;;;;;6297809;22;20195;-88
2021/05/31 07:56:13;;;;;;;17.95;14.02;;;20.80;99.90;;;;;;6297067;22;20176;-86
2021/05/31 07:58:39;;;;;;;16.35;13.75;;;20.80;99.90;;;;;;6297900;22;20180;-83
2021/05/31 08:01:05;;;;;;;16.33;13.93;;;20.70;99.90;;;;;;6297731;22;20172;-79
2021/05/31 08:03:32;;;;;;;17.08;12.93;;;20.90;99.90;;;;;;6298583;22;20167;-78
2021/05/31 08:06:00;;;;;;;14.52;12.80;;;21.10;99.90;;;;;;6298083;22;20164;-80
2021/05/31 08:08:26;;;;;;;13.90;11.88;;;21.40;99.90;;;;;;6298470;22;20172;-81
2021/05/31 08:10:52;;;;;;;13.55;11.18;;;21.60;99.90;;;;;;6296848;22;20176;-85
2021/05/31 08:13:21;;;;;;;13.27;10.90;;;21.50;99.90;;;;;;6297777;22;20206;-82
2021/05/31 08:15:47;;;;;;;13.05;11.65;;;21.60;99.90;;;;;;6295645;22;20255;-83
2021/05/31 08:18:14;;;;;;;13.52;11.88;;;21.70;99.90;;;;;;6297165;22;20179;-82
2021/05/31 08:20:41;;;;;;;12.13;10.02;;;21.80;99.90;;;;;;6298399;22;20180;-80
2021/05/31 08:23:07;;;;;;;12.50;11.27;;;21.80;99.90;;;;;;6297104;22;20901;-82
2021/05/31 08:25:34;;;;;;;11.75;9.98;;;21.50;99.90;;;;;;6297388;22;20616;-85
2021/05/31 08:28:03;;;;;;;14.18;10.45;;;21.50;99.90;;;;;;6297419;22;20442;-79
2021/05/31 08:30:31;;;;;;;10.40;9.32;;;21.70;99.90;;;;;;6298160;22;20179;-79
2021/05/31 08:32:58;;;;;;;10.07;8.50;;;21.80;99.90;;;;;;6298506;22;20337;-87
2021/05/31 08:35:24;;;;;;;11.30;9.32;;;21.90;99.90;;;;;;6299956;22;20168;-84
2021/05/31 08:37:51;;;;;;;11.63;9.05;;;21.80;99.90;;;;;;6299153;22;20517;-83
2021/05/31 08:40:17;;;;;;;11.27;8.73;;;21.90;99.90;;;;;;6297943;22;20187;-80
2021/05/31 08:42:45;;;;;;;8.75;7.93;;;22.00;99.90;;;;;;6299797;22;20654;-83
2021/05/31 08:45:14;;;;;;;8.05;7.25;;;22.10;99.90;;;;;;6300790;22;20180;-85
2021/05/31 08:47:43;;;;;;;9.30;7.28;;;22.50;99.90;;;;;;6296979;22;20168;-85
2021/05/31 08:50:12;;;;;;;8.38;7.57;;;23.00;99.90;;;;;;6297619;22;20160;-81
2021/05/31 08:52:38;;;;;;;8.90;7.18;;;22.90;99.90;;;;;;6298260;22;20568;-81
2021/05/31 08:55:07;;;;;;;7.75;6.95;;;22.60;99.90;;;;;;6297812;22;20861;-86
2021/05/31 08:57:33;;;;;;;8.40;7.53;;;22.40;99.90;;;;;;6297491;22;20179;-85
2021/05/31 08:59:59;;;;;;;8.02;7.22;;;22.40;99.90;;;;;;6297200;22;20168;-83
2021/05/31 09:02:30;;;;;;;8.48;7.57;;;22.60;99.90;;;;;;6298294;22;20171;-80
2021/05/31 09:04:58;;;;;;;9.35;7.93;;;22.40;99.90;;;;;;6298488;22;20201;-85
2021/05/31 09:07:24;;;;;;;8.38;7.50;;;22.30;99.90;;;;;;6298511;22;20172;-81
2021/05/31 09:09:54;;;;;;;7.47;6.78;;;22.20;99.90;;;;;;6298080;22;20172;-81
2021/05/31 09:12:23;;;;;;;7.28;6.30;;;22.30;99.90;;;;;;6297275;22;20171;-78
2021/05/31 09:15:00;;;;;;;7.88;7.15;;;22.40;99.90;;;;;;6297775;22;20192;-88
2021/05/31 09:17:29;;;;;;;7.15;6.45;;;22.70;99.90;;;;;;6299718;22;20164;-85
2021/05/31 09:19:57;;;;;;;7.03;6.32;;;22.80;99.90;;;;;;6296151;22;20168;-80
2021/05/31 09:22:24;;;;;;;6.82;5.85;;;22.90;99.90;;;;;;6298682;22;20180;-82
2021/05/31 09:24:55;;;;;;;6.75;6.15;;;23.10;99.90;;;;;;6301057;22;20172;-83
2021/05/31 09:27:22;;;;;;;7.75;5.85;;;23.20;99.90;;;;;;6301118;22;20164;-81
2021/05/31 09:29:55;;;;;;;7.32;6.63;;;23.40;99.90;;;;;;6300354;22;20176;-83
2021/05/31 09:32:22;;;;;;;6.28;5.43;;;23.40;99.90;;;;;;6302258;22;20179;-83
2021/05/31 09:34:59;;;;;;;6.35;5.75;;;23.20;99.90;;;;;;6301289;22;20202;-88
2021/05/31 09:37:26;;;;;;;6.22;5.63;;;23.30;99.90;;;;;;6300865;22;20298;-83
2021/05/31 09:40:01;;;;;;;9.02;5.60;;;23.30;99.90;;;;;;6302707;22;20175;-90
2021/05/31 09:42:27;;;;;;;5.40;4.90;;;23.20;99.90;;;;;;6301734;22;20636;-88
2021/05/31 09:45:00;;;;;;;6.05;5.13;;;23.40;99.90;;;;;;6301684;22;20164;-90
2021/05/31 09:47:29;;;;;;;4.97;3.78;;;23.80;99.90;;;;;;6301459;22;20186;-80
2021/05/31 09:49:55;;;;;;;5.07;3.90;;;24.10;99.90;;;;;;6301071;22;20164;-87
2021/05/31 09:52:23;;;;;;;5.80;4.85;;;24.60;99.90;;;;;;6302530;22;20225;-86
2021/05/31 09:54:51;;;;;;;4.88;4.22;;;24.80;99.90;;;;;;6300536;22;20188;-89
2021/05/31 09:57:20;;;;;;;6.05;5.55;;;24.70;99.90;;;;;;6300800;22;20176;-81
2021/05/31 09:59:49;;;;;;;7.55;6.05;;;24.50;99.90;;;;;;6300808;22;20175;-82
2021/05/31 10:02:23;;;;;;;6.22;5.32;;;24.50;99.90;;;;;;6300564;22;20172;-83
2021/05/31 10:05:00;;;;;;;9.07;7.20;;;24.50;99.90;;;;;;6301385;22;20199;-85
2021/05/31 10:07:39;;;;;;;5.82;4.93;;;24.50;99.90;;;;;;6301579;22;20168;-81
2021/05/31 10:10:07;;;;;;;5.32;4.80;;;24.50;99.90;;;;;;6298940;22;20255;-83
2021/05/31 10:12:37;;;;;;;6.18;4.45;;;24.60;99.90;;;;;;6299620;22;20233;-83
2021/05/31 10:15:06;;;;;;;5.40;4.75;;;24.80;99.90;;;;;;6298053;22;20192;-83
2021/05/31 10:17:32;;;;;;;6.55;4.53;;;25.10;99.90;;;;;;6298268;22;20168;-82
2021/05/31 10:20:02;;;;;;;7.35;5.18;;;25.00;99.90;;;;;;6300292;22;20171;-84
2021/05/31 10:22:31;;;;;;;6.50;5.85;;;24.90;99.90;;;;;;6299198;22;20254;-82
2021/05/31 10:25:00;;;;;;;6.10;5.35;;;25.20;99.90;;;;;;6301548;22;20168;-83
2021/05/31 10:27:29;;;;;;;7.35;4.50;;;25.10;99.90;;;;;;6299380;22;20258;-84
2021/05/31 10:29:57;;;;;;;6.60;4.30;;;25.10;99.90;;;;;;6300807;22;20274;-84
2021/05/31 10:32:23;;;;;;;4.68;4.30;;;24.90;99.90;;;;;;6298693;22;20225;-82
2021/05/31 10:34:51;;;;;;;5.57;4.40;;;25.20;99.90;;;;;;6298869;22;20203;-82
2021/05/31 10:37:20;;;;;;;4.63;4.05;;;25.60;99.90;;;;;;6299605;22;20212;-83
2021/05/31 10:39:58;;;;;;;8.05;4.53;;;25.70;99.90;;;;;;6299995;22;20225;-85
2021/05/31 10:42:25;;;;;;;7.35;5.53;;;25.90;99.90;;;;;;6299585;22;20178;-84
2021/05/31 10:44:52;;;;;;;7.32;5.68;;;26.20;99.90;;;;;;6303760;22;20187;-84
2021/05/31 10:47:26;;;;;;;5.53;5.00;;;26.30;99.90;;;;;;6301833;22;20183;-84
2021/05/31 10:49:57;;;;;;;5.28;4.72;;;26.40;99.90;;;;;;6297195;22;20171;-85
2021/05/31 10:52:23;;;;;;;5.13;4.53;;;26.30;99.90;;;;;;6296544;22;20172;-86
2021/05/31 10:54:49;;;;;;;7.93;5.85;;;26.70;99.90;;;;;;6300157;22;20249;-87
2021/05/31 10:57:21;;;;;;;4.90;4.18;;;26.50;99.90;;;;;;6299045;22;20168;-83
2021/05/31 10:59:48;;;;;;;6.60;5.80;;;26.40;99.90;;;;;;6298616;22;20172;-84
2021/05/31 11:02:22;;;;;;;8.68;5.32;;;26.30;99.90;;;;;;6297002;22;20184;-86
2021/05/31 11:04:49;;;;;;;6.80;5.65;;;26.50;99.90;;;;;;6296908;22;20179;-82
2021/05/31 11:07:25;;;;;;;6.75;5.53;;;26.50;99.90;;;;;;6295636;22;20176;-82
2021/05/31 11:09:53;;;;;;;7.18;5.25;;;26.70;99.90;;;;;;6297965;22;20610;-84
2021/05/31 11:12:30;;;;;;;9.18;5.70;;;26.70;99.90;;;;;;6296300;22;20563;-81
2021/05/31 11:15:07;;;;;;;4.63;4.13;;;26.20;99.90;;;;;;6294098;22;20191;-82
2021/05/31 11:17:33;;;;;;;5.32;3.70;;;26.20;99.90;;;;;;6294835;22;20191;-83
2021/05/31 11:20:11;;;;;;;4.93;4.05;;;26.00;99.90;;;;;;6295364;22;20176;-80
2021/05/31 11:22:38;;;;;;;5.43;3.40;;;26.20;99.90;;;;;;6293367;22;20164;-79
2021/05/31 11:25:08;;;;;;;4.50;3.78;;;26.00;99.90;;;;;;6293965;22;20172;-79
2021/05/31 11:27:37;;;;;;;5.38;4.03;;;25.80;99.90;;;;;;6293186;22;20223;-78
2021/05/31 11:30:06;;;;;;;4.10;3.17;;;25.50;99.90;;;;;;6294404;22;20180;-80
2021/05/31 11:32:32;;;;;;;3.63;2.95;;;25.10;99.90;;;;;;6294837;22;20174;-78
2021/05/31 11:35:00;;;;;;;3.38;2.70;;;25.00;99.90;;;;;;6292691;22;20199;-80
2021/05/31 11:37:28;;;;;;;3.17;2.85;;;25.40;99.90;;;;;;6293582;22;20191;-82
2021/05/31 11:39:55;;;;;;;4.50;2.90;;;25.80;99.90;;;;;;6293613;22;20172;-80
2021/05/31 11:42:22;;;;;;;7.72;3.90;;;26.10;99.90;;;;;;6293878;22;20180;-80
2021/05/31 11:44:52;;;;;;;5.22;3.15;;;26.10;99.90;;;;;;6293979;22;20168;-80
2021/05/31 11:47:21;;;;;;;4.28;3.17;;;26.20;99.90;;;;;;6294074;22;20172;-80
2021/05/31 11:49:48;;;;;;;4.18;3.10;;;26.60;99.90;;;;;;6294802;22;20172;-82
2021/05/31 11:52:14;;;;;;;5.13;4.18;;;26.50;99.90;;;;;;6295351;22;20254;-80
2021/05/31 11:54:43;;;;;;;5.53;4.57;;;26.30;99.90;;;;;;6294180;22;20196;-86
2021/05/31 11:57:11;;;;;;;5.32;3.80;;;26.40;99.90;;;;;;6292674;22;20172;-81
2021/05/31 11:59:39;;;;;;;3.10;2.88;;;26.30;99.90;;;;;;6295199;22;20183;-79
2021/05/31 12:02:09;;;;;;;5.55;4.65;;;26.00;99.90;;;;;;6293930;22;20904;-80
2021/05/31 12:04:36;;;;;;;5.10;4.60;;;26.10;99.90;;;;;;6294306;22;20193;-79
2021/05/31 12:07:04;;;;;;;4.50;3.53;;;26.00;99.90;;;;;;6294326;22;20183;-85
2021/05/31 12:09:31;;;;;;;5.03;3.50;;;26.10;99.90;;;;;;6293857;22;20795;-84
2021/05/31 12:11:58;;;;;;;3.53;3.08;;;26.30;99.90;;;;;;6293425;22;20202;-79
2021/05/31 12:14:26;;;;;;;5.45;3.20;;;26.30;99.90;;;;;;6293468;22;20625;-79
2021/05/31 12:16:57;;;;;;;4.05;2.47;;;26.50;99.90;;;;;;6291252;22;20859;-80
2021/05/31 12:19:25;;;;;;;3.95;3.55;;;26.50;99.90;;;;;;6294943;22;20180;-81
2021/05/31 12:21:54;;;;;;;4.25;3.83;;;26.10;99.90;;;;;;6294051;22;20164;-82
2021/05/31 12:24:25;;;;;;;4.05;3.33;;;26.10;99.90;;;;;;6292767;22;20176;-83
2021/05/31 12:26:52;;;;;;;4.18;3.60;;;26.20;99.90;;;;;;6292002;22;20409;-81
2021/05/31 12:29:18;;;;;;;5.15;3.85;;;26.20;99.90;;;;;;6294369;22;20164;-80
2021/05/31 12:31:48;;;;;;;6.18;5.55;;;26.00;99.90;;;;;;6293676;22;20188;-83
2021/05/31 12:34:24;;;;;;;7.38;4.93;;;25.60;99.90;;;;;;6295473;22;20650;-81
2021/05/31 12:36:51;;;;;;;7.32;5.85;;;25.70;99.90;;;;;;6293941;22;20521;-82
2021/05/31 12:39:17;;;;;;;6.35;5.22;;;25.90;99.90;;;;;;6293399;22;20187;-80
2021/05/31 12:41:44;;;;;;;6.55;5.95;;;25.70;99.90;;;;;;6294575;22;20229;-81
2021/05/31 12:44:11;;;;;;;7.95;6.18;;;25.80;99.90;;;;;;6294322;22;20428;-82